createdAt,value
2022-10-19T00:01:18.459Z,96187.00
2022-10-19T00:06:33.705Z,96187.60
2022-10-19T00:09:04.764Z,96187.00
2022-10-19T00:11:33.899Z,96188.40
2022-10-19T00:14:01.565Z,96185.20
2022-10-19T00:16:33.062Z,96184.40
2022-10-19T00:19:03.144Z,96185.80
2022-10-19T00:21:30.653Z,96186.60
2022-10-19T00:23:57.493Z,96188.00
2022-10-19T00:26:24.935Z,96189.80
2022-10-19T00:28:55.858Z,96188.00
2022-10-19T00:31:23.313Z,96193.60
2022-10-19T00:33:49.962Z,96185.40
2022-10-19T00:36:22.935Z,96184.80
2022-10-19T00:38:49.870Z,96185.40
2022-10-19T00:41:18.870Z,96182.40
2022-10-19T00:43:56.638Z,96184.00
2022-10-19T00:46:24.358Z,96179.60
2022-10-19T00:48:55.064Z,96174.20
2022-10-19T00:51:24.245Z,96179.00
2022-10-19T00:53:51.087Z,96178.40
2022-10-19T00:56:18.379Z,96175.80
2022-10-19T00:58:45.303Z,96174.80
2022-10-19T01:01:17.750Z,96173.80
2022-10-19T01:03:45.640Z,96170.00
2022-10-19T01:06:15.172Z,96167.80
2022-10-19T01:08:41.724Z,96164.80
2022-10-19T01:11:23.299Z,96166.20
2022-10-19T01:14:14.404Z,96167.20
2022-10-19T01:17:41.870Z,96166.20
2022-10-19T01:21:09.275Z,96164.80
2022-10-19T01:24:00.796Z,96165.00
2022-10-19T01:27:00.923Z,96162.80
2022-10-19T01:30:08.842Z,96158.20
2022-10-19T01:32:38.656Z,96156.80
2022-10-19T01:35:11.677Z,96151.00
2022-10-19T01:38:05.487Z,96146.20
2022-10-19T01:41:07.276Z,96144.40
2022-10-19T01:44:03.655Z,96147.60
2022-10-19T01:46:41.566Z,96149.40
2022-10-19T01:49:19.404Z,96150.40
2022-10-19T01:51:54.790Z,96151.00
2022-10-19T01:54:23.716Z,96147.20
2022-10-19T01:56:52.502Z,96147.20
2022-10-19T01:59:21.438Z,96145.80
2022-10-19T02:01:51.346Z,96151.60
2022-10-19T02:04:21.643Z,96152.00
2022-10-19T02:06:51.988Z,96151.20
2022-10-19T02:09:20.011Z,96155.40
2022-10-19T02:11:57.230Z,96156.60
2022-10-19T02:14:32.693Z,96156.80
2022-10-19T02:17:24.294Z,96156.60
2022-10-19T02:19:51.110Z,96158.20
2022-10-19T02:22:17.843Z,96152.20
2022-10-19T02:24:44.381Z,96151.80
2022-10-19T02:27:12.163Z,96148.20
2022-10-19T02:29:39.766Z,96149.20
2022-10-19T02:32:07.676Z,96149.60
2022-10-19T02:34:36.154Z,96136.20
2022-10-19T02:37:03.084Z,96138.20
2022-10-19T02:39:29.665Z,96139.20
2022-10-19T02:42:13.948Z,96137.00
2022-10-19T02:44:48.249Z,96134.40
2022-10-19T02:47:29.516Z,96129.40
2022-10-19T02:49:56.088Z,96133.60
2022-10-19T02:52:22.945Z,96128.00
2022-10-19T02:54:49.479Z,96128.20
2022-10-19T02:57:19.649Z,96126.60
2022-10-19T02:59:47.271Z,96127.80
2022-10-19T03:02:16.242Z,96128.40
2022-10-19T03:04:44.703Z,96128.00
2022-10-19T03:07:15.028Z,96126.40
2022-10-19T03:09:42.887Z,96127.80
2022-10-19T03:12:10.362Z,96125.60
2022-10-19T03:14:36.909Z,96124.80
2022-10-19T03:17:05.003Z,96128.20
2022-10-19T03:19:32.404Z,96124.20
2022-10-19T03:21:58.977Z,96124.20
2022-10-19T03:24:25.610Z,96123.20
2022-10-19T03:26:52.317Z,96124.40
2022-10-19T03:29:19.176Z,96124.60
2022-10-19T03:31:45.805Z,96118.60
2022-10-19T03:34:12.329Z,96118.60
2022-10-19T03:36:40.568Z,96119.40
2022-10-19T03:39:12.827Z,96112.00
2022-10-19T03:41:39.807Z,96112.60
2022-10-19T03:44:08.292Z,96109.20
2022-10-19T03:46:36.177Z,96111.00
2022-10-19T03:49:03.831Z,96109.40
2022-10-19T03:51:32.055Z,96106.20
2022-10-19T03:54:13.180Z,96104.60
2022-10-19T03:56:39.778Z,96101.40
2022-10-19T03:59:07.317Z,96104.20
2022-10-19T04:01:38.350Z,96099.20
2022-10-19T04:04:13.562Z,96100.80
2022-10-19T04:06:43.658Z,96099.80
2022-10-19T04:09:16.210Z,96098.60
2022-10-19T04:11:43.342Z,96097.60
2022-10-19T04:14:19.067Z,96100.40
2022-10-19T04:16:53.721Z,96095.40
2022-10-19T04:19:20.310Z,96093.40
2022-10-19T04:21:49.430Z,96097.00
2022-10-19T04:24:18.726Z,96094.80
2022-10-19T04:26:48.782Z,96099.60
2022-10-19T04:29:18.988Z,96098.20
2022-10-19T04:31:48.474Z,96097.00
2022-10-19T04:34:15.206Z,96092.00
2022-10-19T04:36:41.873Z,96092.40
2022-10-19T04:39:08.652Z,96088.20
2022-10-19T04:41:35.676Z,96085.80
2022-10-19T04:44:06.445Z,96084.80
2022-10-19T04:46:33.452Z,96083.20
2022-10-19T04:49:00.193Z,96080.00
2022-10-19T04:51:27.730Z,96080.20
2022-10-19T04:53:59.386Z,96079.20
2022-10-19T04:56:27.980Z,96080.00
2022-10-19T04:59:00.176Z,96077.80
2022-10-19T05:01:29.874Z,96074.20
2022-10-19T05:04:01.880Z,96074.40
2022-10-19T05:06:31.338Z,96072.40
2022-10-19T05:08:58.498Z,96071.40
2022-10-19T05:11:25.810Z,96071.40
2022-10-19T05:13:52.528Z,96070.80
2022-10-19T05:16:22.512Z,96070.00
2022-10-19T05:18:51.228Z,96068.80
2022-10-19T05:21:19.199Z,96069.60
2022-10-19T05:23:45.908Z,96068.80
2022-10-19T05:26:17.472Z,96067.20
2022-10-19T05:28:56.553Z,96065.40
2022-10-19T05:31:27.106Z,96062.60
2022-10-19T05:33:56.211Z,96060.80
2022-10-19T05:36:28.634Z,96065.00
2022-10-19T05:38:57.549Z,96064.60
2022-10-19T05:41:26.278Z,96061.00
2022-10-19T05:43:56.224Z,96064.40
2022-10-19T05:46:23.782Z,96062.40
2022-10-19T05:48:50.466Z,96064.60
2022-10-19T05:51:20.313Z,96061.40
2022-10-19T05:53:47.103Z,96062.60
2022-10-19T05:56:21.155Z,96062.80
2022-10-19T05:58:48.723Z,96065.40
2022-10-19T06:01:18.946Z,96066.00
2022-10-19T06:03:47.835Z,96070.00
2022-10-19T06:06:14.518Z,96069.80
2022-10-19T06:08:41.092Z,96073.40
2022-10-19T06:11:12.413Z,96072.80
2022-10-19T06:13:41.299Z,96074.20
2022-10-19T06:16:10.009Z,96074.00
2022-10-19T06:18:37.699Z,96078.40
2022-10-19T06:21:08.135Z,96080.80
2022-10-19T06:23:35.878Z,96078.40
2022-10-19T06:26:09.384Z,96080.20
2022-10-19T06:28:37.424Z,96075.00
2022-10-19T06:31:08.421Z,96078.40
2022-10-19T06:33:36.103Z,96077.20
2022-10-19T06:36:08.494Z,96082.60
2022-10-19T06:38:35.274Z,96085.00
2022-10-19T06:41:02.330Z,96090.60
2022-10-19T06:43:29.146Z,96094.00
2022-10-19T06:45:56.230Z,96089.80
2022-10-19T06:48:23.366Z,96095.20
2022-10-19T06:51:02.068Z,96094.00
2022-10-19T06:53:29.205Z,96099.20
2022-10-19T06:56:00.360Z,96101.40
2022-10-19T06:58:27.683Z,96106.00
2022-10-19T07:00:59.487Z,96108.00
2022-10-19T07:03:28.257Z,96109.20
2022-10-19T07:06:00.107Z,96110.80
2022-10-19T07:08:29.344Z,96114.80
2022-10-19T07:11:03.182Z,96113.20
2022-10-19T07:13:30.818Z,96116.20
2022-10-19T07:16:17.629Z,96113.20
2022-10-19T07:18:47.978Z,96110.00
2022-10-19T07:21:16.011Z,96110.20
2022-10-19T07:23:44.599Z,96110.00
2022-10-19T07:26:26.511Z,96111.40
2022-10-19T07:28:56.162Z,96108.40
2022-10-19T07:31:25.789Z,96102.80
2022-10-19T07:33:58.780Z,96108.80
2022-10-19T07:36:27.493Z,96105.60
2022-10-19T07:38:54.266Z,96107.20
2022-10-19T07:41:24.768Z,96108.00
2022-10-19T07:43:52.715Z,96110.40
2022-10-19T07:46:27.241Z,96106.00
2022-10-19T07:48:54.242Z,96104.60
2022-10-19T07:51:22.344Z,96102.20
2022-10-19T07:53:49.095Z,96103.80
2022-10-19T07:56:22.248Z,96105.40
2022-10-19T07:58:51.426Z,96107.00
2022-10-19T08:01:31.139Z,96109.00
2022-10-19T08:06:46.528Z,96103.00
2022-10-19T08:09:23.017Z,96099.60
2022-10-19T08:11:59.740Z,96101.60
2022-10-19T08:14:26.435Z,96107.20
2022-10-19T08:16:53.166Z,96111.40
2022-10-19T08:19:19.710Z,96111.60
2022-10-19T08:21:47.148Z,96112.80
2022-10-19T08:24:16.176Z,96114.80
2022-10-19T08:26:43.388Z,96110.80
2022-10-19T08:29:20.299Z,96112.20
2022-10-19T08:31:49.118Z,96107.40
2022-10-19T08:34:16.293Z,96110.00
2022-10-19T08:36:43.494Z,96109.40
2022-10-19T08:39:12.706Z,96104.20
2022-10-19T08:42:05.560Z,96105.80
2022-10-19T08:44:34.815Z,96106.60
2022-10-19T08:47:23.744Z,96104.00
2022-10-19T08:49:51.352Z,96101.40
2022-10-19T08:52:35.856Z,96101.80
2022-10-19T08:55:19.595Z,96100.40
2022-10-19T08:58:21.325Z,96097.60
2022-10-19T09:01:12.322Z,96099.40
2022-10-19T09:03:55.531Z,96103.20
2022-10-19T09:06:41.332Z,96100.40
2022-10-19T09:09:15.266Z,96103.40
2022-10-19T09:11:47.612Z,96103.40
2022-10-19T09:14:27.614Z,96103.20
2022-10-19T09:17:03.366Z,96101.00
2022-10-19T09:19:31.995Z,96096.40
2022-10-19T09:22:06.159Z,96096.60
2022-10-19T09:24:43.708Z,96094.60
2022-10-19T09:27:36.330Z,96093.80
2022-10-19T09:30:13.758Z,96091.40
2022-10-19T09:32:40.656Z,96092.00
2022-10-19T09:35:30.647Z,96093.60
2022-10-19T09:37:57.758Z,96093.20
2022-10-19T09:40:30.777Z,96096.80
2022-10-19T09:42:58.984Z,96102.00
2022-10-19T09:45:42.862Z,96106.20
2022-10-19T09:49:04.704Z,96106.00
2022-10-19T09:51:46.007Z,96108.40
2022-10-19T09:54:42.155Z,96110.60
2022-10-19T09:57:20.979Z,96111.40
2022-10-19T09:59:53.161Z,96107.20
2022-10-19T10:02:30.907Z,96108.00
2022-10-19T10:05:14.472Z,96108.40
2022-10-19T10:07:41.197Z,96111.60
2022-10-19T10:10:26.843Z,96113.80
2022-10-19T10:12:59.522Z,96111.00
2022-10-19T10:15:35.514Z,96105.00
2022-10-19T10:18:03.704Z,96101.40
2022-10-19T10:20:32.695Z,96101.20
2022-10-19T10:23:04.942Z,96105.40
2022-10-19T10:25:36.948Z,96109.20
2022-10-19T10:28:20.219Z,96105.60
2022-10-19T10:30:49.086Z,96099.20
2022-10-19T10:33:43.802Z,96098.60
2022-10-19T10:36:12.081Z,96088.80
2022-10-19T10:38:45.326Z,96088.40
2022-10-19T10:41:17.791Z,96086.20
2022-10-19T10:44:06.795Z,96083.40
2022-10-19T10:46:46.815Z,96081.20
2022-10-19T10:49:23.651Z,96082.20
2022-10-19T10:51:56.166Z,96085.00
2022-10-19T10:54:25.961Z,96084.00
2022-10-19T10:57:16.584Z,96086.40
2022-10-19T11:00:12.415Z,96079.80
2022-10-19T11:03:02.328Z,96077.00
2022-10-19T11:05:34.003Z,96073.60
2022-10-19T11:08:21.311Z,96069.00
2022-10-19T11:11:06.446Z,96071.00
2022-10-19T11:13:44.576Z,96066.60
2022-10-19T11:16:18.997Z,96063.20
2022-10-19T11:19:02.671Z,96061.20
2022-10-19T11:21:46.237Z,96053.20
2022-10-19T11:24:35.709Z,96055.60
2022-10-19T11:27:21.851Z,96056.20
2022-10-19T11:30:10.119Z,96054.20
2022-10-19T11:33:10.938Z,96053.40
2022-10-19T11:36:23.783Z,96053.60
2022-10-19T11:39:07.699Z,96046.60
2022-10-19T11:41:47.694Z,96039.60
2022-10-19T11:44:28.188Z,96043.00
2022-10-19T11:47:29.260Z,96032.00
2022-10-19T11:50:54.296Z,96029.60
2022-10-19T11:53:44.019Z,96021.80
2022-10-19T11:56:58.199Z,96013.60
2022-10-19T11:59:50.775Z,96009.00
2022-10-19T12:03:04.999Z,96009.80
2022-10-19T12:05:54.273Z,96010.00
2022-10-19T12:08:33.313Z,96005.80
2022-10-19T12:11:49.241Z,96001.40
2022-10-19T12:14:26.202Z,95997.00
2022-10-19T12:16:59.039Z,95992.60
2022-10-19T12:19:32.852Z,95995.60
2022-10-19T12:22:04.862Z,95991.80
2022-10-19T12:24:33.955Z,95992.40
2022-10-19T12:27:01.960Z,95984.20
2022-10-19T12:29:34.627Z,95982.00
2022-10-19T12:32:03.287Z,95980.40
2022-10-19T12:34:37.884Z,95976.60
2022-10-19T12:37:26.848Z,95970.80
2022-10-19T12:40:12.900Z,95958.60
2022-10-19T12:43:17.616Z,95960.60
2022-10-19T12:45:53.360Z,95954.80
2022-10-19T12:48:22.866Z,95954.80
2022-10-19T12:50:49.369Z,95953.60
2022-10-19T12:53:40.321Z,95946.20
2022-10-19T12:56:09.821Z,95946.40
2022-10-19T12:58:50.019Z,95942.20
2022-10-19T13:01:44.370Z,95939.80
2022-10-19T13:04:14.400Z,95937.80
2022-10-19T13:06:51.294Z,95932.40
2022-10-19T13:09:40.613Z,95929.40
2022-10-19T13:12:16.230Z,95933.20
2022-10-19T13:15:00.651Z,95930.80
2022-10-19T13:17:51.072Z,95928.00
2022-10-19T13:20:17.583Z,95928.20
2022-10-19T13:23:17.441Z,95926.00
2022-10-19T13:25:44.198Z,95923.60
2022-10-19T13:28:10.767Z,95921.00
2022-10-19T13:30:43.387Z,95916.20
2022-10-19T13:33:47.659Z,95916.40
2022-10-19T13:36:14.368Z,95912.80
2022-10-19T13:38:59.314Z,95908.40
2022-10-19T13:41:29.037Z,95909.40
2022-10-19T13:44:02.136Z,95908.40
2022-10-19T13:46:28.769Z,95903.80
2022-10-19T13:49:01.241Z,95909.60
2022-10-19T13:52:10.893Z,95909.40
2022-10-19T13:55:08.671Z,95905.60
2022-10-19T13:58:20.222Z,95899.80
2022-10-19T14:01:15.101Z,95898.80
2022-10-19T14:04:22.479Z,95893.00
2022-10-19T14:06:59.847Z,95886.60
2022-10-19T14:09:44.823Z,95885.00
2022-10-19T14:12:24.224Z,95889.00
2022-10-19T14:14:56.374Z,95884.40
2022-10-19T14:17:33.562Z,95878.60
2022-10-19T14:20:01.051Z,95873.20
2022-10-19T14:22:30.751Z,95868.40
2022-10-19T14:25:14.804Z,95864.20
2022-10-19T14:27:41.492Z,95863.40
2022-10-19T14:30:27.286Z,95863.60
2022-10-19T14:32:58.135Z,95867.40
2022-10-19T14:35:33.475Z,95865.40
2022-10-19T14:38:00.473Z,95866.20
2022-10-19T14:40:31.861Z,95862.00
2022-10-19T14:43:00.884Z,95858.60
2022-10-19T14:45:31.151Z,95856.00
2022-10-19T14:48:07.285Z,95857.60
2022-10-19T14:50:51.090Z,95849.00
2022-10-19T14:53:22.411Z,95847.00
2022-10-19T14:55:52.261Z,95843.00
2022-10-19T14:58:22.770Z,95841.80
2022-10-19T15:00:51.463Z,95841.40
2022-10-19T15:03:25.777Z,95840.60
2022-10-19T15:06:03.731Z,95841.60
2022-10-19T15:08:40.119Z,95844.20
2022-10-19T15:11:07.789Z,95844.60
2022-10-19T15:13:41.708Z,95844.00
2022-10-19T15:16:35.051Z,95843.40
2022-10-19T15:19:42.112Z,95843.60
2022-10-19T15:22:08.585Z,95838.40
2022-10-19T15:24:36.655Z,95838.40
2022-10-19T15:27:22.556Z,95843.80
2022-10-19T15:30:23.113Z,95844.40
2022-10-19T15:33:09.845Z,95846.60
2022-10-19T15:35:40.470Z,95839.20
2022-10-19T15:38:22.564Z,95840.60
2022-10-19T15:41:01.977Z,95835.60
2022-10-19T15:43:34.396Z,95830.80
2022-10-19T15:46:00.937Z,95826.00
2022-10-19T15:48:49.986Z,95824.60
2022-10-19T15:51:25.012Z,95824.40
2022-10-19T15:53:55.210Z,95820.80
2022-10-19T15:56:25.241Z,95820.60
2022-10-19T15:58:55.789Z,95822.00
2022-10-19T16:01:26.348Z,95818.80
2022-10-19T16:03:53.871Z,95824.80
2022-10-19T16:06:25.159Z,95827.80
2022-10-19T16:08:53.968Z,95827.20
2022-10-19T16:11:23.156Z,95825.00
2022-10-19T16:13:50.512Z,95823.00
2022-10-19T16:16:32.790Z,95816.00
2022-10-19T16:19:00.565Z,95815.00
2022-10-19T16:21:33.129Z,95812.20
2022-10-19T16:24:00.081Z,95817.00
2022-10-19T16:26:27.843Z,95812.60
2022-10-19T16:28:55.975Z,95815.00
2022-10-19T16:31:24.085Z,95818.20
2022-10-19T16:33:51.371Z,95819.40
2022-10-19T16:36:20.295Z,95815.80
2022-10-19T16:38:47.623Z,95820.60
2022-10-19T16:41:14.626Z,95820.20
2022-10-19T16:43:41.362Z,95824.60
2022-10-19T16:46:08.278Z,95825.20
2022-10-19T16:48:34.974Z,95829.40
2022-10-19T16:51:07.717Z,95829.20
2022-10-19T16:53:35.839Z,95836.80
2022-10-19T16:56:12.363Z,95839.40
2022-10-19T16:58:40.748Z,95839.60
2022-10-19T17:01:09.865Z,95836.60
2022-10-19T17:03:36.663Z,95834.00
2022-10-19T17:06:05.979Z,95833.20
2022-10-19T17:08:37.142Z,95836.80
2022-10-19T17:11:24.437Z,95841.20
2022-10-19T17:13:54.271Z,95838.60
2022-10-19T17:16:21.621Z,95837.00
2022-10-19T17:18:49.230Z,95841.40
2022-10-19T17:21:20.362Z,95838.00
2022-10-19T17:23:48.005Z,95842.80
2022-10-19T17:26:14.529Z,95841.20
2022-10-19T17:28:41.551Z,95834.60
2022-10-19T17:31:14.289Z,95832.80
2022-10-19T17:33:41.782Z,95825.40
2022-10-19T17:36:15.354Z,95826.20
2022-10-19T17:38:42.391Z,95821.80
2022-10-19T17:41:13.438Z,95829.20
2022-10-19T17:43:42.779Z,95826.40
2022-10-19T17:46:12.665Z,95827.40
2022-10-19T17:48:41.156Z,95825.20
2022-10-19T17:51:15.956Z,95828.40
2022-10-19T17:53:44.642Z,95822.80
2022-10-19T17:56:15.321Z,95820.00
2022-10-19T17:58:42.592Z,95817.20
2022-10-19T18:01:10.994Z,95815.40
2022-10-19T18:03:39.368Z,95816.20
2022-10-19T18:06:12.919Z,95822.40
2022-10-19T18:08:44.164Z,95827.60
2022-10-19T18:11:15.699Z,95825.00
2022-10-19T18:13:42.578Z,95831.80
2022-10-19T18:16:15.835Z,95827.80
2022-10-19T18:18:45.992Z,95827.40
2022-10-19T18:21:15.819Z,95819.80
2022-10-19T18:23:43.069Z,95818.40
2022-10-19T18:26:15.712Z,95820.60
2022-10-19T18:28:43.379Z,95820.40
2022-10-19T18:31:16.655Z,95819.60
2022-10-19T18:33:43.259Z,95819.60
2022-10-19T18:36:10.901Z,95825.40
2022-10-19T18:38:38.592Z,95828.60
2022-10-19T18:41:08.841Z,95834.00
2022-10-19T18:43:35.517Z,95834.60
2022-10-19T18:46:02.062Z,95829.80
2022-10-19T18:48:29.435Z,95824.40
2022-10-19T18:50:57.625Z,95819.80
2022-10-19T18:53:24.548Z,95824.20
2022-10-19T18:56:07.078Z,95819.20
2022-10-19T18:58:35.268Z,95821.60
2022-10-19T19:01:06.261Z,95819.00
2022-10-19T19:03:33.581Z,95811.20
2022-10-19T19:06:01.860Z,95808.00
2022-10-19T19:08:29.112Z,95808.40
2022-10-19T19:10:56.489Z,95802.60
2022-10-19T19:13:23.852Z,95799.80
2022-10-19T19:15:59.324Z,95801.20
2022-10-19T19:18:26.278Z,95802.40
2022-10-19T19:20:53.977Z,95802.60
2022-10-19T19:23:20.801Z,95802.20
2022-10-19T19:25:48.475Z,95797.00
2022-10-19T19:28:15.232Z,95793.00
2022-10-19T19:30:44.582Z,95787.40
2022-10-19T19:33:12.711Z,95787.40
2022-10-19T19:35:47.655Z,95784.60
2022-10-19T19:38:15.464Z,95784.20
2022-10-19T19:40:45.322Z,95778.80
2022-10-19T19:43:14.371Z,95781.60
2022-10-19T19:45:42.723Z,95784.80
2022-10-19T19:48:10.765Z,95789.80
2022-10-19T19:50:38.593Z,95786.20
2022-10-19T19:53:05.226Z,95787.60
2022-10-19T19:55:38.141Z,95787.00
2022-10-19T19:58:05.893Z,95789.60
2022-10-19T20:00:32.552Z,95786.80
2022-10-19T20:02:59.712Z,95786.40
2022-10-19T20:05:32.046Z,95784.40
2022-10-19T20:07:58.890Z,95785.00
2022-10-19T20:10:25.790Z,95782.40
2022-10-19T20:12:52.403Z,95778.40
2022-10-19T20:15:19.385Z,95777.60
2022-10-19T20:17:46.539Z,95778.80
2022-10-19T20:20:17.877Z,95778.00
2022-10-19T20:22:48.747Z,95773.20
2022-10-19T20:25:16.277Z,95771.00
2022-10-19T20:27:43.058Z,95768.60
2022-10-19T20:30:10.950Z,95768.80
2022-10-19T20:32:38.012Z,95765.00
2022-10-19T20:35:05.980Z,95768.20
2022-10-19T20:37:32.552Z,95767.60
2022-10-19T20:39:59.193Z,95772.20
2022-10-19T20:42:25.739Z,95772.20
2022-10-19T20:44:54.655Z,95769.80
2022-10-19T20:47:21.420Z,95769.60
2022-10-19T20:49:48.231Z,95765.20
2022-10-19T20:52:15.044Z,95760.80
2022-10-19T20:54:41.586Z,95764.20
2022-10-19T20:57:08.251Z,95765.80
2022-10-19T20:59:34.873Z,95769.60
2022-10-19T21:02:01.496Z,95766.60
2022-10-19T21:04:28.282Z,95758.20
2022-10-19T21:06:54.773Z,95758.60
2022-10-19T21:09:23.620Z,95754.00
2022-10-19T21:11:51.768Z,95756.80
2022-10-19T21:14:27.236Z,95758.60
2022-10-19T21:16:57.285Z,95755.20
2022-10-19T21:19:27.052Z,95756.20
2022-10-19T21:22:03.506Z,95756.40
2022-10-19T21:24:34.536Z,95756.40
2022-10-19T21:27:05.636Z,95751.60
2022-10-19T21:29:32.709Z,95746.40
2022-10-19T21:31:59.544Z,95740.60
2022-10-19T21:34:29.844Z,95740.00
2022-10-19T21:36:57.633Z,95734.60
2022-10-19T21:39:24.252Z,95737.80
2022-10-19T21:41:50.859Z,95739.00
2022-10-19T21:44:18.645Z,95741.40
2022-10-19T21:46:47.667Z,95738.40
2022-10-19T21:49:14.424Z,95742.00
2022-10-19T21:51:54.141Z,95742.00
2022-10-19T21:54:24.934Z,95740.80
2022-10-19T21:56:53.995Z,95738.80
2022-10-19T21:59:20.613Z,95735.00
2022-10-19T22:01:47.226Z,95729.80
2022-10-19T22:04:17.789Z,95725.80
2022-10-19T22:06:45.082Z,95724.40
2022-10-19T22:09:20.688Z,95716.00
2022-10-19T22:11:48.278Z,95715.80
2022-10-19T22:14:16.841Z,95712.40
2022-10-19T22:16:43.996Z,95716.60
2022-10-19T22:19:11.309Z,95708.00
2022-10-19T22:24:15.499Z,95705.20
2022-10-19T22:26:47.713Z,95709.60
2022-10-19T22:29:15.032Z,95709.80
2022-10-19T22:31:41.847Z,95703.60
2022-10-19T22:34:12.731Z,95696.40
2022-10-19T22:36:39.318Z,95686.80
2022-10-19T22:39:07.817Z,95676.40
2022-10-19T22:41:34.411Z,95670.00
2022-10-19T22:44:01.218Z,95661.80
2022-10-19T22:46:27.882Z,95661.60
2022-10-19T22:48:54.591Z,95663.80
2022-10-19T22:51:21.362Z,95669.80
2022-10-19T22:53:47.903Z,95664.80
2022-10-19T22:56:14.586Z,95665.40
2022-10-19T22:58:41.170Z,95668.80
2022-10-19T23:01:13.877Z,95668.40
2022-10-19T23:03:41.882Z,95673.20
2022-10-19T23:06:11.795Z,95673.00
2022-10-19T23:08:38.937Z,95672.60
2022-10-19T23:11:06.102Z,95674.80
2022-10-19T23:13:33.018Z,95677.60
2022-10-19T23:15:59.616Z,95676.20
2022-10-19T23:18:26.405Z,95681.80
2022-10-19T23:20:58.947Z,95685.60
2022-10-19T23:23:25.862Z,95689.20
2022-10-19T23:26:06.619Z,95686.00
2022-10-19T23:28:36.337Z,95682.40
2022-10-19T23:31:12.940Z,95674.40
2022-10-19T23:33:40.819Z,95664.80
2022-10-19T23:36:17.826Z,95663.80
2022-10-19T23:38:46.247Z,95661.80
2022-10-19T23:41:13.720Z,95662.00
2022-10-19T23:43:42.326Z,95660.20
2022-10-19T23:46:09.631Z,95658.80
2022-10-19T23:48:36.950Z,95658.40
2022-10-19T23:51:07.259Z,95652.60
2022-10-19T23:53:40.779Z,95659.80
2022-10-19T23:56:27.865Z,95656.40
2022-10-19T23:58:55.812Z,95654.60
